Terminal Aerodrome Forecast
Issued by NWS

Home | Current Version | Previous Version | Text Only | Print | Product List | Glossary On
Versions: 1 2 3 4 5 6 7 8 9 10 11 12 13 14 15 16 17 18 19 20 21 22 23 24 25 26 27 28 29 30 31
000
FTUS45 KGJT 080539
TAFDRO
TAF
KDRO 080539Z 0806/0906 06005KT P6SM VCSH BKN070 OVC090
     FM080900 08003KT P6SM SCT080 BKN120
     FM081200 14003KT P6SM VCSH SCT060 BKN080
     FM081800 26010G17KT P6SM VCTS SCT060 BKN080CB
     FM090100 32004KT P6SM SCT100 BKN200=

USA.gov is the U.S. government's official web portal to all federal, state and local government web resources and services.